Time;durP1;ratioP1;P1;durP2;ratioP2;P2;SDS_P1;SDS_P2;PMS_P1;PMS_P2;Temp;Humidity;BMP_temperature;BMP_pressure;BME280_temperature;BME280_humidity;BME280_pressure;Samples;Min_cycle;Max_cycle;Signal;HPM_P1;HPM_P2
2022/09/17 00:00:45;;;;;;;13.43;8.10;;;;;;;12.46;80.49;97948.00;6274738;22;20090;-94
2022/09/17 02:25:58;;;;;;;9.93;6.05;;;;;;;10.93;80.77;98031.72;6246580;23;20076;-94
2022/09/17 02:39:17;;;;;;;7.55;5.57;;;;;;;10.86;80.54;98026.84;6219984;23;20099;-93
2022/09/17 03:47:32;;;;;;;12.43;5.60;;;;;;;10.68;80.01;98074.69;6313570;22;20034;-93
2022/09/17 03:54:16;;;;;;;10.27;5.05;;;;;;;10.48;80.31;98033.50;6250568;23;20054;-94
2022/09/17 04:18:06;;;;;;;8.90;6.05;;;;;;;10.83;80.40;98112.28;6260025;22;20028;-94
2022/09/17 05:45:53;;;;;;;10.98;5.75;;;;;;;11.27;77.68;98123.34;6188233;23;20385;-93
2022/09/17 05:48:19;;;;;;;12.88;6.00;;;;;;;11.64;78.71;98164.25;6194507;23;20025;-88
2022/09/17 05:50:45;;;;;;;14.45;5.55;;;;;;;11.59;77.43;98168.03;6166052;23;20047;-89
2022/09/17 05:53:12;;;;;;;8.10;6.40;;;;;;;11.76;79.42;98173.22;6113919;23;20095;-91
2022/09/17 05:55:39;;;;;;;15.70;5.95;;;;;;;11.89;79.16;98149.34;6163279;23;20362;-94
2022/09/17 05:58:17;;;;;;;7.35;5.00;;;;;;;12.20;76.60;98177.94;6160696;23;20106;-90
2022/09/17 06:00:46;;;;;;;9.57;5.63;;;;;;;12.10;76.22;98179.25;6184905;23;20017;-91
2022/09/17 06:03:14;;;;;;;13.63;6.18;;;;;;;11.95;75.51;98180.81;6185138;23;20072;-90
2022/09/17 06:05:41;;;;;;;9.05;5.70;;;;;;;11.90;76.83;98163.84;6184597;23;20455;-92
2022/09/17 06:08:08;;;;;;;11.43;5.05;;;;;;;11.91;76.70;98174.41;6158758;23;20017;-90
2022/09/17 06:10:37;;;;;;;;;;;;;;;12.09;76.47;98179.59;6185672;23;20051;-91
2022/09/17 06:13:03;;;;;;;8.77;5.28;;;;;;;11.99;76.48;98154.31;6158817;23;19990;-91
2022/09/17 06:15:30;;;;;;;10.00;4.47;;;;;;;12.05;75.00;98168.53;6159962;23;20451;-91
2022/09/17 06:17:56;;;;;;;8.63;4.82;;;;;;;12.10;75.55;98179.25;6111249;23;20358;-91
2022/09/17 06:20:22;;;;;;;11.82;4.55;;;;;;;12.05;74.49;98179.47;6184762;23;20412;-91
2022/09/17 06:22:48;;;;;;;8.20;4.70;;;;;;;12.20;75.44;98197.13;6134373;23;20052;-91
2022/09/17 06:25:15;;;;;;;8.63;4.60;;;;;;;12.04;75.31;98161.47;6153842;23;20026;-89
2022/09/17 06:27:41;;;;;;;10.10;4.57;;;;;;;12.16;76.11;98158.66;6104677;23;20013;-91
2022/09/17 06:30:07;;;;;;;7.35;4.20;;;;;;;12.40;75.48;98185.13;6128882;23;20022;-89
2022/09/17 06:32:39;;;;;;;15.98;5.72;;;;;;;12.24;74.57;98176.06;6155712;23;20056;-91
2022/09/17 06:35:07;;;;;;;12.73;5.07;;;;;;;12.27;74.36;98169.09;6156048;23;20069;-91
2022/09/17 06:37:34;;;;;;;9.15;5.60;;;;;;;12.57;74.22;98196.88;6129664;23;20538;-90
2022/09/17 06:40:01;;;;;;;9.73;4.88;;;;;;;12.68;74.54;98200.66;6130210;23;20017;-92
2022/09/17 06:42:28;;;;;;;11.30;4.70;;;;;;;12.78;74.76;98193.84;6153982;23;20036;-93
2022/09/17 06:44:57;;;;;;;9.70;4.03;;;;;;;12.78;73.90;98183.72;6134095;23;20017;-92
2022/09/17 06:47:25;;;;;;;7.78;4.07;;;;;;;12.54;72.79;98149.03;6084760;23;20072;-93
2022/09/17 06:49:53;;;;;;;8.32;3.85;;;;;;;12.53;71.90;98146.66;6085718;23;20366;-94
2022/09/17 06:52:19;;;;;;;10.30;3.60;;;;;;;12.94;71.88;98200.13;6085428;23;20024;-94
2022/09/17 06:54:45;;;;;;;9.73;5.25;;;;;;;12.89;72.71;98173.78;6084131;23;20021;-94
2022/09/17 06:57:12;;;;;;;11.18;3.50;;;;;;;12.86;72.19;98152.53;6084490;23;20105;-94
2022/09/17 06:59:38;;;;;;;8.35;3.55;;;;;;;13.10;72.19;98172.69;6133723;23;20455;-93
2022/09/17 07:02:05;;;;;;;12.77;4.07;;;;;;;13.31;71.11;98200.66;6112925;23;20022;-93
2022/09/17 07:04:31;;;;;;;8.65;3.20;;;;;;;13.31;70.74;98184.19;6112568;23;20088;-93
2022/09/17 07:07:25;;;;;;;7.57;3.30;;;;;;;13.52;70.27;98199.50;6088994;23;20108;-93
2022/09/17 07:09:54;;;;;;;8.13;3.40;;;;;;;13.24;67.96;98148.31;6089271;23;20024;-93
2022/09/17 07:15:37;;;;;;;5.88;2.88;;;;;;;14.06;66.72;98201.38;6155926;23;20036;-93
2022/09/17 07:18:10;;;;;;;13.30;3.88;;;;;;;14.24;66.00;98207.25;6110482;23;20022;-94
2022/09/17 07:20:42;;;;;;;8.68;3.88;;;;;;;14.39;64.14;98213.78;6156341;23;20036;-92
2022/09/17 07:23:08;;;;;;;10.85;3.15;;;;;;;14.15;62.87;98160.75;6108427;23;20009;-92
2022/09/17 07:25:34;;;;;;;5.17;2.80;;;;;;;14.59;63.94;98212.59;6110922;23;20022;-94
2022/09/17 07:28:02;;;;;;;8.33;2.83;;;;;;;14.61;62.34;98215.00;6156765;23;20276;-95
2022/09/17 07:30:29;;;;;;;8.75;2.58;;;;;;;14.55;61.62;98209.78;6156993;23;20012;-93
2022/09/17 07:32:55;;;;;;;10.40;2.90;;;;;;;14.51;60.26;98214.44;6130324;23;20009;-94
2022/09/17 07:35:24;;;;;;;14.00;3.30;;;;;;;14.46;60.91;98206.44;6182169;23;20049;-92
2022/09/17 07:38:25;;;;;;;15.60;3.03;;;;;;;14.50;60.96;98221.09;6155187;23;20068;-93
2022/09/17 07:41:03;;;;;;;13.45;3.10;;;;;;;14.45;61.75;98224.13;6154653;23;20060;-93
2022/09/17 07:43:31;;;;;;;13.10;3.17;;;;;;;14.47;61.40;98220.97;6181089;23;20016;-91
2022/09/17 07:45:59;;;;;;;10.70;2.60;;;;;;;14.41;61.41;98219.72;6179376;23;20081;-93
2022/09/17 07:48:27;;;;;;;13.07;2.80;;;;;;;14.36;60.25;98193.31;6132097;23;20024;-92
2022/09/17 07:50:54;;;;;;;10.82;3.33;;;;;;;14.51;61.00;98208.16;6148302;23;20014;-94
2022/09/17 07:53:21;;;;;;;13.25;2.65;;;;;;;14.73;60.96;98223.84;6143489;23;20025;-91
2022/09/17 07:55:56;;;;;;;7.40;2.65;;;;;;;14.76;60.08;98214.84;6092625;23;20022;-92
2022/09/17 08:02:18;;;;;;;18.63;3.38;;;;;;;15.08;58.74;98216.53;6170944;23;20037;-89
2022/09/17 08:04:44;;;;;;;16.05;3.28;;;;;;;15.02;58.22;98221.56;6162541;23;20356;-89
2022/09/17 08:07:12;;;;;;;21.65;3.42;;;;;;;14.97;56.85;98230.16;6160744;23;20021;-91
2022/09/17 08:10:06;;;;;;;11.98;3.30;;;;;;;14.80;56.56;98218.47;6155645;23;20028;-92
2022/09/17 08:12:36;;;;;;;13.25;3.45;;;;;;;14.95;57.97;98226.94;6160326;23;20021;-89
2022/09/17 08:15:09;;;;;;;12.40;2.30;;;;;;;14.74;56.80;98194.38;6135329;23;20032;-89
2022/09/17 08:17:36;;;;;;;5.88;2.20;;;;;;;14.97;58.32;98217.16;6157619;23;20061;-89
2022/09/17 08:20:03;;;;;;;13.10;2.33;;;;;;;14.90;56.48;98206.06;6157305;23;20053;-90
2022/09/17 08:22:30;;;;;;;8.23;2.38;;;;;;;14.86;54.90;98193.38;6158653;23;20021;-88
2022/09/17 08:24:56;;;;;;;8.55;2.50;;;;;;;15.10;57.45;98215.00;6156742;23;20041;-90
2022/09/17 08:27:23;;;;;;;12.00;2.97;;;;;;;15.11;55.88;98233.09;6105972;23;20017;-90
2022/09/17 08:30:21;;;;;;;13.82;3.47;;;;;;;14.68;56.24;98151.84;6168389;23;20028;-89
2022/09/17 08:34:29;;;;;;;9.68;2.60;;;;;;;15.25;55.46;98232.53;6148666;23;20087;-89
2022/09/17 08:36:55;;;;;;;8.57;2.30;;;;;;;15.01;55.77;98196.00;6145527;23;20329;-95
2022/09/17 08:39:44;;;;;;;12.32;2.58;;;;;;;15.22;54.03;98191.97;6173771;23;20092;-95
2022/09/17 08:46:23;;;;;;;5.60;1.85;;;;;;;15.54;54.89;98225.47;6183036;23;20025;-89
2022/09/17 08:53:43;;;;;;;7.03;1.80;;;;;;;15.53;52.92;98226.66;6265117;22;20110;-94
2022/09/17 09:16:07;;;;;;;22.38;7.43;;;;;;;15.95;47.80;98220.13;6266946;23;20030;-94
2022/09/17 09:18:39;;;;;;;16.98;4.78;;;;;;;16.30;49.08;98252.03;6201822;23;20031;-92
2022/09/17 09:22:02;;;;;;;10.75;4.40;;;;;;;16.30;47.84;98244.56;6232699;23;20031;-95
2022/09/17 09:25:16;;;;;;;11.75;5.63;;;;;;;16.42;48.59;98235.22;6203597;23;20050;-93
2022/09/17 09:28:11;;;;;;;9.75;2.97;;;;;;;16.17;48.18;98216.44;6255935;23;20435;-95
2022/09/17 09:31:25;;;;;;;12.10;3.67;;;;;;;16.38;47.29;98245.41;6205135;23;20048;-93
2022/09/17 09:33:52;;;;;;;8.13;2.92;;;;;;;16.40;48.77;98238.38;6165132;23;20102;-93
2022/09/17 09:36:20;;;;;;;11.70;2.42;;;;;;;16.52;47.28;98242.00;6177485;23;20067;-93
2022/09/17 09:39:02;;;;;;;9.63;3.70;;;;;;;16.67;47.38;98250.06;6174637;23;20016;-94
2022/09/17 09:41:53;;;;;;;5.85;1.90;;;;;;;16.59;46.01;98251.19;6190081;23;20031;-92
2022/09/17 09:56:23;;;;;;;9.30;1.88;;;;;;;16.13;44.44;98264.47;6075843;23;20042;-93
2022/09/17 09:59:42;;;;;;;4.90;1.88;;;;;;;16.06;43.92;98259.66;6050835;23;20143;-95
2022/09/17 10:02:10;;;;;;;10.10;1.92;;;;;;;15.89;42.16;98211.41;6049589;23;20019;-94
2022/09/17 10:04:37;;;;;;;;;;;;;;;16.35;41.76;98260.75;6028139;23;20014;-93
2022/09/17 10:07:05;;;;;;;7.63;1.90;;;;;;;16.41;41.25;98256.50;6032758;23;20004;-95
2022/09/17 10:12:45;;;;;;;5.80;2.20;;;;;;;16.52;42.30;98264.88;6262974;22;20084;-93
2022/09/17 10:16:15;;;;;;;9.73;1.75;;;;;;;16.61;40.62;98261.81;6206237;23;20023;-95
2022/09/17 10:19:08;;;;;;;8.68;1.40;;;;;;;15.86;43.25;98205.81;6227860;23;20103;-93
2022/09/17 10:22:11;;;;;;;8.18;1.63;;;;;;;16.15;42.23;98271.16;6255786;23;20016;-93
2022/09/17 10:31:15;;;;;;;5.13;1.90;;;;;;;16.49;41.66;98278.63;6176739;23;20013;-94
2022/09/17 10:37:54;;;;;;;4.65;1.70;;;;;;;16.02;43.59;98214.69;6206784;23;20028;-94
2022/09/17 10:40:31;;;;;;;3.17;1.70;;;;;;;16.59;42.84;98281.53;6191491;22;20032;-93
2022/09/17 10:43:25;;;;;;;12.35;2.05;;;;;;;16.33;42.45;98209.94;6185999;23;20029;-94
2022/09/17 10:46:04;;;;;;;10.45;2.03;;;;;;;16.67;41.89;98274.09;6210861;23;20023;-92
2022/09/17 10:49:55;;;;;;;6.55;1.95;;;;;;;16.52;42.50;98284.19;6132391;23;20087;-93
2022/09/17 10:53:22;;;;;;;11.00;2.23;;;;;;;16.11;43.40;98212.44;6149700;23;20021;-94
2022/09/17 10:56:12;;;;;;;4.65;1.80;;;;;;;16.42;42.17;98268.31;6167641;23;20253;-94
2022/09/17 10:59:12;;;;;;;9.20;1.80;;;;;;;16.19;42.91;98249.16;6116824;23;20104;-92
2022/09/17 11:02:17;;;;;;;12.43;2.95;;;;;;;16.49;42.76;98284.16;6162749;23;20049;-95
2022/09/17 11:05:01;;;;;;;4.30;2.10;;;;;;;16.55;43.16;98288.94;6117563;23;20021;-94
2022/09/17 11:07:34;;;;;;;6.25;1.90;;;;;;;16.63;42.95;98295.34;6159540;23;20021;-92
2022/09/17 11:21:13;;;;;;;8.70;2.17;;;;;;;17.00;41.09;98218.06;6059519;23;20086;-93
2022/09/17 11:24:10;;;;;;;7.03;2.15;;;;;;;17.37;42.40;98278.69;6032458;23;20019;-95
2022/09/17 11:30:23;;;;;;;6.70;1.80;;;;;;;17.40;41.80;98262.53;5985686;23;20028;-94
2022/09/17 11:33:25;;;;;;;7.00;2.38;;;;;;;17.37;41.09;98291.69;6076479;23;20088;-94
2022/09/17 11:36:37;;;;;;;6.30;2.10;;;;;;;17.15;40.43;98290.72;6100047;23;20018;-96
2022/09/17 11:40:03;;;;;;;7.18;2.50;;;;;;;16.93;41.18;98288.97;6079346;23;20054;-94
2022/09/17 11:43:22;;;;;;;9.90;2.55;;;;;;;16.87;42.08;98286.56;6072126;23;20564;-92
2022/09/17 11:45:57;;;;;;;6.40;2.40;;;;;;;16.71;42.27;98276.91;6072684;23;20054;-95
2022/09/17 11:48:38;;;;;;;12.15;2.10;;;;;;;16.82;42.56;98275.88;6050863;23;20110;-94
2022/09/17 11:51:38;;;;;;;14.60;2.83;;;;;;;16.84;42.73;98281.00;6107185;23;20001;-93
2022/09/17 11:54:16;;;;;;;6.70;1.90;;;;;;;16.35;41.32;98243.41;6069407;23;20022;-94
2022/09/17 12:00:19;;;;;;;7.90;1.65;;;;;;;16.55;41.42;98231.00;6110496;23;20033;-93
2022/09/17 12:03:05;;;;;;;5.68;2.03;;;;;;;16.88;41.63;98303.91;6144042;23;20028;-95
2022/09/17 12:06:11;;;;;;;8.15;4.05;;;;;;;16.84;42.36;98287.31;6112634;23;20111;-94
2022/09/17 12:09:14;;;;;;;5.65;1.90;;;;;;;16.79;41.59;98301.47;6111128;23;20036;-94
2022/09/17 12:11:54;;;;;;;6.97;1.90;;;;;;;16.77;41.93;98300.25;6139954;23;20021;-94
2022/09/17 12:14:28;;;;;;;9.77;1.98;;;;;;;16.76;42.45;98304.19;6104463;23;20045;-94
2022/09/17 12:17:02;;;;;;;9.88;2.65;;;;;;;16.75;42.78;98303.38;6103820;23;20053;-94
2022/09/17 12:19:49;;;;;;;6.57;2.03;;;;;;;16.77;42.45;98297.50;6104901;23;20025;-93
2022/09/17 12:22:35;;;;;;;5.53;1.90;;;;;;;16.77;42.67;98316.81;6081270;23;20026;-92
2022/09/17 12:25:01;;;;;;;7.78;1.90;;;;;;;16.76;43.17;98301.44;6104858;23;20519;-93
2022/09/17 12:28:36;;;;;;;8.02;2.53;;;;;;;16.65;43.49;98291.06;6080675;23;20022;-93
2022/09/17 12:31:16;;;;;;;13.02;2.88;;;;;;;16.52;43.00;98281.44;6107607;23;20026;-93
2022/09/17 12:33:52;;;;;;;4.82;2.38;;;;;;;16.38;44.39;98259.22;6101323;23;20029;-93
2022/09/17 12:36:35;;;;;;;6.50;2.47;;;;;;;16.67;43.91;98310.75;6129951;23;20025;-94
2022/09/17 12:39:10;;;;;;;11.85;2.38;;;;;;;16.70;43.97;98314.75;6231549;22;20366;-94
2022/09/17 12:42:30;;;;;;;5.10;2.25;;;;;;;16.73;44.09;98314.00;6248940;23;20027;-93
2022/09/17 12:45:38;;;;;;;6.15;3.20;;;;;;;16.71;44.51;98310.81;6077304;23;20413;-93
2022/09/17 12:48:07;;;;;;;9.27;3.63;;;;;;;16.77;43.46;98316.81;6246040;23;20023;-93
2022/09/17 12:50:36;;;;;;;8.40;3.58;;;;;;;16.70;43.43;98319.47;6247452;22;20020;-93
2022/09/17 12:53:28;;;;;;;7.63;2.58;;;;;;;16.58;43.34;98324.06;6224297;22;20038;-93
2022/09/17 12:56:01;;;;;;;7.00;2.40;;;;;;;16.49;44.22;98336.56;6111048;23;20025;-93
2022/09/17 12:58:49;;;;;;;8.32;3.17;;;;;;;16.44;44.85;98340.47;6111416;23;20017;-94
2022/09/17 13:01:24;;;;;;;8.30;3.50;;;;;;;16.43;45.60;98349.91;6109612;23;20112;-90
2022/09/17 13:04:36;;;;;;;6.45;2.63;;;;;;;16.43;45.29;98342.44;6108506;23;20025;-88
2022/09/17 13:07:15;;;;;;;9.32;3.15;;;;;;;16.44;44.45;98332.97;6107917;23;20514;-89
2022/09/17 13:10:09;;;;;;;10.88;2.72;;;;;;;16.69;44.57;98343.53;6157163;23;20021;-92
2022/09/17 13:12:56;;;;;;;8.73;2.53;;;;;;;16.82;44.67;98324.72;6132708;23;20013;-88
2022/09/17 13:15:56;;;;;;;11.57;2.70;;;;;;;16.97;44.25;98336.72;6108549;23;20336;-87
2022/09/17 13:18:30;;;;;;;6.13;2.10;;;;;;;17.08;43.60;98340.38;6157371;23;20028;-91
2022/09/17 13:21:13;;;;;;;8.75;2.60;;;;;;;17.14;43.70;98328.59;6134750;23;20071;-93
2022/09/17 13:23:45;;;;;;;6.32;2.33;;;;;;;16.95;42.37;98314.22;6110622;23;20072;-89
2022/09/17 13:29:29;;;;;;;8.65;2.20;;;;;;;16.65;43.41;98321.41;6275900;22;20020;-88
2022/09/17 13:32:32;;;;;;;8.10;2.90;;;;;;;16.54;44.35;98316.94;6137112;23;20031;-88
2022/09/17 13:35:24;;;;;;;5.38;2.67;;;;;;;16.51;44.54;98331.47;6162718;23;20082;-87
2022/09/17 13:38:09;;;;;;;8.13;3.03;;;;;;;16.37;45.18;98304.53;6186774;23;20095;-91
2022/09/17 13:41:25;;;;;;;10.43;2.92;;;;;;;16.51;45.14;98317.69;6187304;23;20045;-89
2022/09/17 13:43:54;;;;;;;10.10;2.97;;;;;;;16.24;45.67;98290.19;6163459;23;20095;-91
2022/09/17 13:51:18;;;;;;;13.43;3.45;;;;;;;16.71;45.01;98327.34;6202526;22;20007;-91
2022/09/17 13:54:46;;;;;;;11.30;3.90;;;;;;;16.97;45.71;98318.19;6166742;23;20004;-88
2022/09/17 14:05:42;;;;;;;8.18;2.80;;;;;;;16.52;46.89;98306.25;6241752;22;20025;-87
2022/09/17 14:09:20;;;;;;;12.52;3.40;;;;;;;16.47;46.09;98295.56;6149424;23;20093;-91
2022/09/17 14:12:17;;;;;;;6.15;3.33;;;;;;;16.53;47.06;98296.03;6180530;23;20062;-91
2022/09/17 14:16:11;;;;;;;7.55;2.58;;;;;;;16.59;46.88;98311.88;6181128;23;20036;-90
2022/09/17 14:18:57;;;;;;;16.48;2.90;;;;;;;16.28;46.98;98281.94;6168527;23;20014;-92
2022/09/17 14:22:00;;;;;;;6.13;2.10;;;;;;;16.29;46.44;98317.44;6153036;23;20053;-88
2022/09/17 14:28:55;;;;;;;14.93;3.00;;;;;;;16.32;47.08;98327.69;6271475;22;20039;-94
2022/09/17 14:31:30;;;;;;;8.02;2.38;;;;;;;16.29;46.90;98327.66;6111716;23;20046;-91
2022/09/17 14:34:37;;;;;;;7.22;2.30;;;;;;;16.10;47.17;98299.06;6082577;23;20084;-90
2022/09/17 14:41:28;;;;;;;9.50;1.90;;;;;;;16.26;48.02;98328.41;6018081;23;20099;-93
2022/09/17 14:44:07;;;;;;;6.00;2.42;;;;;;;16.13;47.70;98334.16;6017127;23;20024;-91
2022/09/17 14:47:30;;;;;;;10.05;2.78;;;;;;;16.05;48.03;98343.50;5960776;24;20025;-95
2022/09/17 14:57:39;;;;;;;6.38;2.45;;;;;;;15.84;49.66;98355.03;5958549;24;20515;-91
2022/09/17 15:00:20;;;;;;;9.38;2.70;;;;;;;15.71;50.07;98345.38;5934096;24;20340;-91
2022/09/17 15:02:58;;;;;;;9.15;2.13;;;;;;;15.69;50.38;98345.75;5964677;24;20017;-94
2022/09/17 15:06:00;;;;;;;13.90;2.92;;;;;;;15.30;49.92;98303.81;5960542;24;20126;-91
2022/09/17 15:08:29;;;;;;;8.98;3.38;;;;;;;15.47;50.22;98335.53;6023129;23;20106;-94
2022/09/17 15:22:24;;;;;;;11.90;4.57;;;;;;;15.33;51.25;98358.16;6254704;23;20030;-94
2022/09/17 15:39:30;;;;;;;20.65;6.03;;;;;;;15.18;53.51;98370.06;6139843;23;20040;-93
2022/09/17 16:29:15;;;;;;;13.02;4.65;;;;;;;13.56;70.18;98406.31;6271298;23;20022;-90
2022/09/17 16:32:38;;;;;;;;;;;;;;;13.66;70.36;98440.69;6110610;23;20023;-88
2022/09/17 16:36:41;;;;;;;10.23;4.60;;;;;;;13.55;70.74;98440.41;6121856;23;19909;-90
2022/09/17 16:40:30;;;;;;;12.52;6.57;;;;;;;13.57;70.82;98447.13;6118126;23;20042;-94
2022/09/17 16:44:21;;;;;;;14.70;5.93;;;;;;;13.63;71.06;98464.16;6047495;23;20022;-93
2022/09/17 16:52:17;;;;;;;14.35;5.70;;;;;;;13.65;69.21;98464.59;6113017;23;20033;-96
2022/09/17 17:12:53;;;;;;;14.63;5.95;;;;;;;13.29;67.09;98458.19;6254087;22;20024;-92
2022/09/17 17:15:30;;;;;;;10.77;5.65;;;;;;;12.96;67.64;98409.06;6189454;23;20029;-87
2022/09/17 19:04:51;;;;;;;16.42;8.30;;;;;;;11.67;70.44;98440.84;6248906;23;20116;-92
2022/09/17 19:19:36;;;;;;;32.40;9.77;;;;;;;11.69;71.40;98490.56;6249836;22;20024;-91
2022/09/17 19:37:26;;;;;;;24.60;10.15;;;;;;;11.37;72.93;98494.94;6246200;22;20032;-96
2022/09/17 19:39:54;;;;;;;23.85;8.85;;;;;;;11.01;72.76;98447.19;6179142;23;20102;-94
2022/09/17 21:58:32;;;;;;;25.58;8.52;;;;;;;10.59;79.97;98654.16;6291692;22;20057;-96
2022/09/17 22:01:14;;;;;;;20.55;9.82;;;;;;;10.46;79.86;98628.69;6235294;22;20011;-96
2022/09/17 22:09:23;;;;;;;17.80;9.07;;;;;;;10.12;80.06;98555.84;6172012;23;20111;-94
